EKAC weather

Aarhus Seaplane Terminal
Aarhus, Denmark

Public forecast

Using degrees Celsius for public forecast. Weather courtesy of forecast.io.

Closest aviation weather report (METAR) to Aarhus Seaplane Terminal

Closest report is Aarhus Airport, 15.2 nm (28.2 km) NE. Retrieved 2019/12/06 15:20 UTC (0 seconds ago):

EKAH 061520Z AUTO 21008G18KT 150V260 9999NDV OVC004/// 09/08 Q0994

Closest aviation forecast (TAF) to Aarhus Seaplane Terminal

Closest forecast is Aarhus Airport, 15.2 nm (28.2 km) NE. Retrieved 2019/12/06 12:00 UTC (3 hours ago):

TAF EKAH 061110Z 0612/0712 22012KT 8000 BKN012 BECMG 0612/0614 2000 BR BKN004 TEMPO 0614/0623 23012G25KT 6000 SHRA BKN008 SCT015 BECMG 0623/0701 28012KT 9999 NSW SCT008 SCT015CB TEMPO 0701/0706 28015G25KT SHRA BKN010 TEMPO 0706/0712 29015G25KT SHRA